sensor_id;sensor_type;location;lat;lon;timestamp;P1;durP1;ratioP1;P2;durP2;ratioP2
70132;SDS011;57495;49.922;7.966;2023-03-01T00:01:26;12.13;;;6.13;;
70132;SDS011;57495;49.922;7.966;2023-03-01T00:03:29;13.93;;;6.63;;
70132;SDS011;57495;49.922;7.966;2023-03-01T00:05:32;12.25;;;6.57;;
70132;SDS011;57495;49.922;7.966;2023-03-01T00:07:33;13.02;;;5.65;;
70132;SDS011;57495;49.922;7.966;2023-03-01T00:09:35;15.10;;;6.75;;
70132;SDS011;57495;49.922;7.966;2023-03-01T00:11:37;13.10;;;6.45;;
70132;SDS011;57495;49.922;7.966;2023-03-01T00:13:40;13.90;;;6.78;;
70132;SDS011;57495;49.922;7.966;2023-03-01T00:15:42;11.07;;;5.75;;
70132;SDS011;57495;49.922;7.966;2023-03-01T00:17:45;12.77;;;6.05;;
70132;SDS011;57495;49.922;7.966;2023-03-01T00:19:46;14.07;;;7.10;;
70132;SDS011;57495;49.922;7.966;2023-03-01T00:21:48;13.30;;;6.35;;
70132;SDS011;57495;49.922;7.966;2023-03-01T00:23:49;12.80;;;5.97;;
70132;SDS011;57495;49.922;7.966;2023-03-01T00:25:51;12.65;;;6.57;;
70132;SDS011;57495;49.922;7.966;2023-03-01T00:27:53;11.20;;;6.18;;
70132;SDS011;57495;49.922;7.966;2023-03-01T00:29:54;11.20;;;5.60;;
70132;SDS011;57495;49.922;7.966;2023-03-01T00:31:56;11.57;;;6.00;;
70132;SDS011;57495;49.922;7.966;2023-03-01T00:34:02;13.82;;;6.43;;
70132;SDS011;57495;49.922;7.966;2023-03-01T00:36:05;12.85;;;6.65;;
70132;SDS011;57495;49.922;7.966;2023-03-01T00:38:07;14.35;;;7.00;;
70132;SDS011;57495;49.922;7.966;2023-03-01T00:40:09;14.43;;;6.70;;
70132;SDS011;57495;49.922;7.966;2023-03-01T00:42:11;16.35;;;7.13;;
70132;SDS011;57495;49.922;7.966;2023-03-01T00:44:15;14.60;;;6.82;;
70132;SDS011;57495;49.922;7.966;2023-03-01T00:46:20;13.50;;;6.65;;
70132;SDS011;57495;49.922;7.966;2023-03-01T00:48:22;15.75;;;7.38;;
70132;SDS011;57495;49.922;7.966;2023-03-01T00:50:25;12.25;;;6.88;;
70132;SDS011;57495;49.922;7.966;2023-03-01T00:52:26;18.08;;;7.45;;
70132;SDS011;57495;49.922;7.966;2023-03-01T00:54:28;14.18;;;6.90;;
70132;SDS011;57495;49.922;7.966;2023-03-01T00:56:30;14.00;;;6.50;;
70132;SDS011;57495;49.922;7.966;2023-03-01T00:58:34;14.25;;;6.93;;
70132;SDS011;57495;49.922;7.966;2023-03-01T01:00:36;14.20;;;7.05;;
70132;SDS011;57495;49.922;7.966;2023-03-01T01:02:38;12.75;;;6.10;;
70132;SDS011;57495;49.922;7.966;2023-03-01T01:04:39;13.93;;;6.75;;
70132;SDS011;57495;49.922;7.966;2023-03-01T01:06:42;14.75;;;6.70;;
70132;SDS011;57495;49.922;7.966;2023-03-01T01:08:45;13.50;;;6.53;;
70132;SDS011;57495;49.922;7.966;2023-03-01T01:10:47;12.82;;;6.32;;
70132;SDS011;57495;49.922;7.966;2023-03-01T01:12:48;14.45;;;7.00;;
70132;SDS011;57495;49.922;7.966;2023-03-01T01:14:52;14.35;;;6.63;;
70132;SDS011;57495;49.922;7.966;2023-03-01T01:16:53;14.90;;;6.45;;
70132;SDS011;57495;49.922;7.966;2023-03-01T01:18:55;14.20;;;7.03;;
70132;SDS011;57495;49.922;7.966;2023-03-01T01:20:56;13.82;;;6.97;;
70132;SDS011;57495;49.922;7.966;2023-03-01T01:22:59;13.73;;;6.88;;
70132;SDS011;57495;49.922;7.966;2023-03-01T01:25:00;15.48;;;6.93;;
70132;SDS011;57495;49.922;7.966;2023-03-01T01:27:02;14.77;;;7.03;;
70132;SDS011;57495;49.922;7.966;2023-03-01T01:29:04;15.23;;;7.07;;
70132;SDS011;57495;49.922;7.966;2023-03-01T01:31:06;14.73;;;6.65;;
70132;SDS011;57495;49.922;7.966;2023-03-01T01:33:08;16.63;;;7.32;;
70132;SDS011;57495;49.922;7.966;2023-03-01T01:35:09;19.45;;;7.15;;
70132;SDS011;57495;49.922;7.966;2023-03-01T01:37:11;17.17;;;7.80;;
70132;SDS011;57495;49.922;7.966;2023-03-01T01:39:13;15.35;;;7.85;;
70132;SDS011;57495;49.922;7.966;2023-03-01T01:41:15;14.98;;;7.60;;
70132;SDS011;57495;49.922;7.966;2023-03-01T01:43:19;14.88;;;7.03;;
70132;SDS011;57495;49.922;7.966;2023-03-01T01:45:27;13.80;;;7.10;;
70132;SDS011;57495;49.922;7.966;2023-03-01T01:47:30;16.48;;;7.60;;
70132;SDS011;57495;49.922;7.966;2023-03-01T01:49:33;16.95;;;7.65;;
70132;SDS011;57495;49.922;7.966;2023-03-01T01:51:39;14.18;;;7.57;;
70132;SDS011;57495;49.922;7.966;2023-03-01T01:53:43;15.68;;;7.47;;
70132;SDS011;57495;49.922;7.966;2023-03-01T01:55:48;15.73;;;7.43;;
70132;SDS011;57495;49.922;7.966;2023-03-01T01:57:54;15.85;;;7.70;;
70132;SDS011;57495;49.922;7.966;2023-03-01T02:00:04;19.50;;;7.28;;
70132;SDS011;57495;49.922;7.966;2023-03-01T02:02:07;18.98;;;9.23;;
70132;SDS011;57495;49.922;7.966;2023-03-01T02:04:09;16.77;;;7.32;;
70132;SDS011;57495;49.922;7.966;2023-03-01T02:06:16;16.20;;;8.23;;
70132;SDS011;57495;49.922;7.966;2023-03-01T02:08:23;15.00;;;8.13;;
70132;SDS011;57495;49.922;7.966;2023-03-01T02:10:27;17.27;;;8.32;;
70132;SDS011;57495;49.922;7.966;2023-03-01T02:12:31;16.02;;;7.68;;
70132;SDS011;57495;49.922;7.966;2023-03-01T02:14:34;16.10;;;7.28;;
70132;SDS011;57495;49.922;7.966;2023-03-01T02:16:36;15.30;;;7.88;;
70132;SDS011;57495;49.922;7.966;2023-03-01T02:18:37;15.70;;;8.10;;
70132;SDS011;57495;49.922;7.966;2023-03-01T02:20:40;15.60;;;7.03;;
70132;SDS011;57495;49.922;7.966;2023-03-01T02:22:50;20.42;;;8.25;;
70132;SDS011;57495;49.922;7.966;2023-03-01T02:24:56;16.05;;;7.75;;
70132;SDS011;57495;49.922;7.966;2023-03-01T02:27:08;16.48;;;7.28;;
70132;SDS011;57495;49.922;7.966;2023-03-01T02:29:12;16.02;;;7.45;;
70132;SDS011;57495;49.922;7.966;2023-03-01T02:31:14;15.38;;;8.00;;
70132;SDS011;57495;49.922;7.966;2023-03-01T02:33:36;15.25;;;7.15;;
70132;SDS011;57495;49.922;7.966;2023-03-01T02:35:39;16.65;;;7.60;;
70132;SDS011;57495;49.922;7.966;2023-03-01T02:37:41;13.93;;;6.90;;
70132;SDS011;57495;49.922;7.966;2023-03-01T02:39:44;17.20;;;7.43;;
70132;SDS011;57495;49.922;7.966;2023-03-01T02:41:49;12.40;;;6.63;;
70132;SDS011;57495;49.922;7.966;2023-03-01T02:43:53;14.27;;;6.95;;
70132;SDS011;57495;49.922;7.966;2023-03-01T02:45:57;15.27;;;7.75;;
70132;SDS011;57495;49.922;7.966;2023-03-01T02:47:59;13.73;;;6.35;;
70132;SDS011;57495;49.922;7.966;2023-03-01T02:50:00;14.27;;;7.72;;
70132;SDS011;57495;49.922;7.966;2023-03-01T02:52:07;15.02;;;8.00;;
70132;SDS011;57495;49.922;7.966;2023-03-01T02:54:25;14.65;;;7.25;;
70132;SDS011;57495;49.922;7.966;2023-03-01T02:56:32;16.33;;;7.63;;
70132;SDS011;57495;49.922;7.966;2023-03-01T02:58:33;15.30;;;8.32;;
70132;SDS011;57495;49.922;7.966;2023-03-01T03:00:41;16.17;;;6.55;;
70132;SDS011;57495;49.922;7.966;2023-03-01T03:02:49;15.40;;;7.45;;
70132;SDS011;57495;49.922;7.966;2023-03-01T03:04:52;12.57;;;7.13;;
70132;SDS011;57495;49.922;7.966;2023-03-01T03:06:53;17.73;;;7.43;;
70132;SDS011;57495;49.922;7.966;2023-03-01T03:08:54;15.13;;;7.30;;
70132;SDS011;57495;49.922;7.966;2023-03-01T03:10:56;14.68;;;7.15;;
70132;SDS011;57495;49.922;7.966;2023-03-01T03:12:58;15.23;;;7.25;;
70132;SDS011;57495;49.922;7.966;2023-03-01T03:15:01;15.32;;;7.10;;
70132;SDS011;57495;49.922;7.966;2023-03-01T03:17:08;13.65;;;7.00;;
70132;SDS011;57495;49.922;7.966;2023-03-01T03:19:11;16.25;;;7.72;;
70132;SDS011;57495;49.922;7.966;2023-03-01T03:21:13;13.35;;;6.38;;
70132;SDS011;57495;49.922;7.966;2023-03-01T03:23:16;17.85;;;7.45;;
70132;SDS011;57495;49.922;7.966;2023-03-01T03:25:17;15.13;;;7.57;;
70132;SDS011;57495;49.922;7.966;2023-03-01T03:27:20;16.85;;;7.32;;
70132;SDS011;57495;49.922;7.966;2023-03-01T03:29:21;16.40;;;7.55;;
70132;SDS011;57495;49.922;7.966;2023-03-01T03:31:23;14.10;;;7.47;;
70132;SDS011;57495;49.922;7.966;2023-03-01T03:33:24;14.88;;;6.70;;
70132;SDS011;57495;49.922;7.966;2023-03-01T03:35:27;14.27;;;7.10;;
70132;SDS011;57495;49.922;7.966;2023-03-01T03:37:30;17.55;;;8.00;;
70132;SDS011;57495;49.922;7.966;2023-03-01T03:39:50;15.05;;;7.28;;
70132;SDS011;57495;49.922;7.966;2023-03-01T03:41:54;14.00;;;7.05;;
70132;SDS011;57495;49.922;7.966;2023-03-01T03:43:56;15.30;;;7.63;;
70132;SDS011;57495;49.922;7.966;2023-03-01T03:45:57;16.85;;;8.13;;
70132;SDS011;57495;49.922;7.966;2023-03-01T03:47:59;13.85;;;7.30;;
70132;SDS011;57495;49.922;7.966;2023-03-01T03:50:01;16.52;;;7.40;;
70132;SDS011;57495;49.922;7.966;2023-03-01T03:52:03;15.45;;;8.07;;
70132;SDS011;57495;49.922;7.966;2023-03-01T03:54:05;15.30;;;7.90;;
70132;SDS011;57495;49.922;7.966;2023-03-01T03:56:06;14.57;;;7.63;;
70132;SDS011;57495;49.922;7.966;2023-03-01T03:58:09;16.40;;;7.97;;
70132;SDS011;57495;49.922;7.966;2023-03-01T04:00:11;17.30;;;8.60;;
70132;SDS011;57495;49.922;7.966;2023-03-01T04:02:13;19.00;;;8.43;;
70132;SDS011;57495;49.922;7.966;2023-03-01T04:04:21;20.05;;;9.20;;
70132;SDS011;57495;49.922;7.966;2023-03-01T04:06:23;19.40;;;9.13;;
70132;SDS011;57495;49.922;7.966;2023-03-01T04:08:26;21.25;;;9.68;;
70132;SDS011;57495;49.922;7.966;2023-03-01T04:10:28;17.10;;;8.52;;
70132;SDS011;57495;49.922;7.966;2023-03-01T04:12:31;15.85;;;7.95;;
70132;SDS011;57495;49.922;7.966;2023-03-01T04:14:34;16.00;;;7.82;;
70132;SDS011;57495;49.922;7.966;2023-03-01T04:16:35;15.55;;;7.50;;
70132;SDS011;57495;49.922;7.966;2023-03-01T04:18:37;15.80;;;7.78;;
70132;SDS011;57495;49.922;7.966;2023-03-01T04:20:38;15.10;;;7.30;;
70132;SDS011;57495;49.922;7.966;2023-03-01T04:22:40;15.05;;;8.00;;
70132;SDS011;57495;49.922;7.966;2023-03-01T04:24:43;16.20;;;8.27;;
70132;SDS011;57495;49.922;7.966;2023-03-01T04:26:44;15.75;;;8.15;;
70132;SDS011;57495;49.922;7.966;2023-03-01T04:28:46;14.75;;;7.50;;
70132;SDS011;57495;49.922;7.966;2023-03-01T04:30:49;15.98;;;7.53;;
70132;SDS011;57495;49.922;7.966;2023-03-01T04:32:51;15.45;;;7.45;;
70132;SDS011;57495;49.922;7.966;2023-03-01T04:34:52;16.38;;;8.10;;
70132;SDS011;57495;49.922;7.966;2023-03-01T04:36:54;16.20;;;7.88;;
70132;SDS011;57495;49.922;7.966;2023-03-01T04:38:56;14.60;;;7.78;;
70132;SDS011;57495;49.922;7.966;2023-03-01T04:40:59;18.92;;;8.15;;
70132;SDS011;57495;49.922;7.966;2023-03-01T04:43:00;18.20;;;8.23;;
70132;SDS011;57495;49.922;7.966;2023-03-01T04:45:02;15.77;;;8.07;;
70132;SDS011;57495;49.922;7.966;2023-03-01T04:47:12;18.23;;;7.93;;
70132;SDS011;57495;49.922;7.966;2023-03-01T04:49:14;16.10;;;8.00;;
70132;SDS011;57495;49.922;7.966;2023-03-01T04:51:16;19.90;;;8.63;;
70132;SDS011;57495;49.922;7.966;2023-03-01T04:53:18;16.52;;;8.13;;
70132;SDS011;57495;49.922;7.966;2023-03-01T04:55:19;16.40;;;7.57;;
70132;SDS011;57495;49.922;7.966;2023-03-01T04:57:22;16.85;;;7.82;;
70132;SDS011;57495;49.922;7.966;2023-03-01T04:59:26;16.75;;;7.85;;
70132;SDS011;57495;49.922;7.966;2023-03-01T05:01:28;16.15;;;8.00;;
70132;SDS011;57495;49.922;7.966;2023-03-01T05:03:30;16.15;;;8.50;;
70132;SDS011;57495;49.922;7.966;2023-03-01T05:05:36;16.73;;;8.50;;
70132;SDS011;57495;49.922;7.966;2023-03-01T05:07:39;16.45;;;7.93;;
70132;SDS011;57495;49.922;7.966;2023-03-01T05:09:43;17.17;;;7.95;;
70132;SDS011;57495;49.922;7.966;2023-03-01T05:11:45;17.20;;;8.05;;
70132;SDS011;57495;49.922;7.966;2023-03-01T05:13:48;19.73;;;7.88;;
70132;SDS011;57495;49.922;7.966;2023-03-01T05:15:55;15.90;;;7.72;;
70132;SDS011;57495;49.922;7.966;2023-03-01T05:17:58;20.52;;;8.35;;
70132;SDS011;57495;49.922;7.966;2023-03-01T05:20:00;16.58;;;8.75;;
70132;SDS011;57495;49.922;7.966;2023-03-01T05:22:06;16.15;;;8.10;;
70132;SDS011;57495;49.922;7.966;2023-03-01T05:24:08;16.55;;;8.00;;
70132;SDS011;57495;49.922;7.966;2023-03-01T05:26:12;21.48;;;8.63;;
70132;SDS011;57495;49.922;7.966;2023-03-01T05:28:13;18.75;;;8.52;;
70132;SDS011;57495;49.922;7.966;2023-03-01T05:30:16;18.42;;;8.73;;
70132;SDS011;57495;49.922;7.966;2023-03-01T05:32:21;19.35;;;8.93;;
70132;SDS011;57495;49.922;7.966;2023-03-01T05:34:23;15.15;;;7.55;;
70132;SDS011;57495;49.922;7.966;2023-03-01T05:36:25;17.52;;;8.07;;
70132;SDS011;57495;49.922;7.966;2023-03-01T05:38:29;16.92;;;8.15;;
70132;SDS011;57495;49.922;7.966;2023-03-01T05:40:32;16.10;;;8.68;;
70132;SDS011;57495;49.922;7.966;2023-03-01T05:42:34;22.35;;;11.70;;
70132;SDS011;57495;49.922;7.966;2023-03-01T05:44:36;20.10;;;10.25;;
70132;SDS011;57495;49.922;7.966;2023-03-01T05:46:48;16.88;;;9.32;;
70132;SDS011;57495;49.922;7.966;2023-03-01T05:48:50;18.70;;;8.60;;
70132;SDS011;57495;49.922;7.966;2023-03-01T05:50:51;17.48;;;8.82;;
70132;SDS011;57495;49.922;7.966;2023-03-01T05:52:56;20.15;;;8.35;;
70132;SDS011;57495;49.922;7.966;2023-03-01T05:54:59;17.77;;;8.32;;
70132;SDS011;57495;49.922;7.966;2023-03-01T05:57:00;18.27;;;8.70;;
70132;SDS011;57495;49.922;7.966;2023-03-01T05:59:02;18.55;;;9.23;;
70132;SDS011;57495;49.922;7.966;2023-03-01T06:01:10;18.38;;;8.77;;
70132;SDS011;57495;49.922;7.966;2023-03-01T06:03:16;16.33;;;8.25;;
70132;SDS011;57495;49.922;7.966;2023-03-01T06:05:18;16.23;;;8.68;;
70132;SDS011;57495;49.922;7.966;2023-03-01T06:07:20;17.08;;;8.30;;
70132;SDS011;57495;49.922;7.966;2023-03-01T06:09:21;18.05;;;8.93;;
70132;SDS011;57495;49.922;7.966;2023-03-01T06:11:23;17.00;;;9.00;;
70132;SDS011;57495;49.922;7.966;2023-03-01T06:13:25;16.85;;;8.57;;
70132;SDS011;57495;49.922;7.966;2023-03-01T06:15:26;18.52;;;8.25;;
70132;SDS011;57495;49.922;7.966;2023-03-01T06:17:31;17.38;;;8.75;;
70132;SDS011;57495;49.922;7.966;2023-03-01T06:19:38;18.40;;;8.95;;
70132;SDS011;57495;49.922;7.966;2023-03-01T06:21:41;18.83;;;8.63;;
70132;SDS011;57495;49.922;7.966;2023-03-01T06:23:42;16.75;;;8.98;;
70132;SDS011;57495;49.922;7.966;2023-03-01T06:25:46;19.70;;;8.70;;
70132;SDS011;57495;49.922;7.966;2023-03-01T06:27:48;20.27;;;9.15;;
70132;SDS011;57495;49.922;7.966;2023-03-01T06:29:53;20.63;;;9.35;;
70132;SDS011;57495;49.922;7.966;2023-03-01T06:32:01;21.05;;;8.90;;
70132;SDS011;57495;49.922;7.966;2023-03-01T06:34:03;18.42;;;9.38;;
70132;SDS011;57495;49.922;7.966;2023-03-01T06:36:07;19.58;;;8.85;;
70132;SDS011;57495;49.922;7.966;2023-03-01T06:38:09;23.00;;;10.50;;
70132;SDS011;57495;49.922;7.966;2023-03-01T06:40:11;20.45;;;10.27;;
70132;SDS011;57495;49.922;7.966;2023-03-01T06:42:13;25.13;;;10.00;;
70132;SDS011;57495;49.922;7.966;2023-03-01T06:44:15;19.27;;;9.25;;
70132;SDS011;57495;49.922;7.966;2023-03-01T06:46:16;20.55;;;9.55;;
70132;SDS011;57495;49.922;7.966;2023-03-01T06:48:18;20.80;;;8.80;;
70132;SDS011;57495;49.922;7.966;2023-03-01T06:50:19;20.33;;;9.57;;
70132;SDS011;57495;49.922;7.966;2023-03-01T06:52:23;41.10;;;20.52;;
70132;SDS011;57495;49.922;7.966;2023-03-01T06:54:25;26.92;;;14.48;;
70132;SDS011;57495;49.922;7.966;2023-03-01T06:56:26;21.08;;;10.68;;
70132;SDS011;57495;49.922;7.966;2023-03-01T06:58:28;22.13;;;9.68;;
70132;SDS011;57495;49.922;7.966;2023-03-01T07:00:29;21.30;;;10.30;;
70132;SDS011;57495;49.922;7.966;2023-03-01T07:02:31;20.60;;;10.07;;
70132;SDS011;57495;49.922;7.966;2023-03-01T07:04:34;18.02;;;9.18;;
70132;SDS011;57495;49.922;7.966;2023-03-01T07:06:35;21.48;;;10.68;;
70132;SDS011;57495;49.922;7.966;2023-03-01T07:08:38;21.48;;;10.15;;
70132;SDS011;57495;49.922;7.966;2023-03-01T07:10:39;19.92;;;9.38;;
70132;SDS011;57495;49.922;7.966;2023-03-01T07:12:41;22.77;;;9.75;;
70132;SDS011;57495;49.922;7.966;2023-03-01T07:14:43;21.90;;;8.98;;
70132;SDS011;57495;49.922;7.966;2023-03-01T07:16:45;19.80;;;9.93;;
70132;SDS011;57495;49.922;7.966;2023-03-01T07:18:46;19.55;;;9.80;;
70132;SDS011;57495;49.922;7.966;2023-03-01T07:20:48;19.70;;;9.05;;
70132;SDS011;57495;49.922;7.966;2023-03-01T07:22:49;17.48;;;9.30;;
70132;SDS011;57495;49.922;7.966;2023-03-01T07:24:52;18.75;;;8.75;;
70132;SDS011;57495;49.922;7.966;2023-03-01T07:26:54;19.77;;;9.27;;
70132;SDS011;57495;49.922;7.966;2023-03-01T07:28:55;18.17;;;9.13;;
70132;SDS011;57495;49.922;7.966;2023-03-01T07:31:00;19.00;;;9.73;;
70132;SDS011;57495;49.922;7.966;2023-03-01T07:33:02;19.00;;;9.18;;
70132;SDS011;57495;49.922;7.966;2023-03-01T07:35:05;18.08;;;8.68;;
70132;SDS011;57495;49.922;7.966;2023-03-01T07:37:07;17.80;;;9.23;;
70132;SDS011;57495;49.922;7.966;2023-03-01T07:39:09;18.23;;;9.68;;
70132;SDS011;57495;49.922;7.966;2023-03-01T07:41:12;18.13;;;10.43;;
70132;SDS011;57495;49.922;7.966;2023-03-01T07:43:14;19.52;;;9.35;;
70132;SDS011;57495;49.922;7.966;2023-03-01T07:45:15;20.35;;;8.98;;
70132;SDS011;57495;49.922;7.966;2023-03-01T07:47:17;17.67;;;9.63;;
70132;SDS011;57495;49.922;7.966;2023-03-01T07:49:18;20.10;;;9.77;;
70132;SDS011;57495;49.922;7.966;2023-03-01T07:51:20;23.42;;;10.50;;
70132;SDS011;57495;49.922;7.966;2023-03-01T07:53:24;24.67;;;12.65;;
70132;SDS011;57495;49.922;7.966;2023-03-01T07:55:26;20.95;;;9.80;;
70132;SDS011;57495;49.922;7.966;2023-03-01T07:57:28;17.50;;;8.70;;
70132;SDS011;57495;49.922;7.966;2023-03-01T07:59:31;20.00;;;9.55;;
70132;SDS011;57495;49.922;7.966;2023-03-01T08:01:33;21.77;;;9.82;;
70132;SDS011;57495;49.922;7.966;2023-03-01T08:03:35;19.05;;;9.35;;
70132;SDS011;57495;49.922;7.966;2023-03-01T08:05:37;17.15;;;9.63;;
70132;SDS011;57495;49.922;7.966;2023-03-01T08:07:38;18.33;;;9.40;;
70132;SDS011;57495;49.922;7.966;2023-03-01T08:09:40;16.40;;;9.20;;
70132;SDS011;57495;49.922;7.966;2023-03-01T08:11:41;17.10;;;8.65;;
70132;SDS011;57495;49.922;7.966;2023-03-01T08:13:46;17.25;;;8.70;;
70132;SDS011;57495;49.922;7.966;2023-03-01T08:15:48;15.95;;;8.98;;
70132;SDS011;57495;49.922;7.966;2023-03-01T08:17:50;17.00;;;9.18;;
70132;SDS011;57495;49.922;7.966;2023-03-01T08:19:52;19.58;;;9.13;;
70132;SDS011;57495;49.922;7.966;2023-03-01T08:21:53;17.95;;;9.27;;
70132;SDS011;57495;49.922;7.966;2023-03-01T08:23:55;17.38;;;9.55;;
70132;SDS011;57495;49.922;7.966;2023-03-01T08:26:02;15.20;;;8.10;;
70132;SDS011;57495;49.922;7.966;2023-03-01T08:28:06;17.10;;;9.07;;
70132;SDS011;57495;49.922;7.966;2023-03-01T08:30:10;13.82;;;7.78;;
70132;SDS011;57495;49.922;7.966;2023-03-01T08:32:12;15.88;;;7.88;;
70132;SDS011;57495;49.922;7.966;2023-03-01T08:34:16;16.25;;;9.02;;
70132;SDS011;57495;49.922;7.966;2023-03-01T08:36:18;18.20;;;9.50;;
70132;SDS011;57495;49.922;7.966;2023-03-01T08:38:20;19.80;;;8.95;;
70132;SDS011;57495;49.922;7.966;2023-03-01T08:40:22;17.67;;;8.98;;
70132;SDS011;57495;49.922;7.966;2023-03-01T08:42:23;15.52;;;8.65;;
70132;SDS011;57495;49.922;7.966;2023-03-01T08:44:28;17.45;;;9.23;;
70132;SDS011;57495;49.922;7.966;2023-03-01T08:46:31;16.25;;;8.82;;
70132;SDS011;57495;49.922;7.966;2023-03-01T08:48:36;18.90;;;9.63;;
70132;SDS011;57495;49.922;7.966;2023-03-01T08:50:38;18.85;;;9.32;;
70132;SDS011;57495;49.922;7.966;2023-03-01T08:52:39;17.90;;;9.82;;
70132;SDS011;57495;49.922;7.966;2023-03-01T08:54:41;19.33;;;9.68;;
70132;SDS011;57495;49.922;7.966;2023-03-01T08:56:42;16.77;;;8.77;;
70132;SDS011;57495;49.922;7.966;2023-03-01T08:58:44;20.05;;;9.27;;
70132;SDS011;57495;49.922;7.966;2023-03-01T09:00:46;17.25;;;9.32;;
70132;SDS011;57495;49.922;7.966;2023-03-01T09:02:49;17.70;;;9.10;;
70132;SDS011;57495;49.922;7.966;2023-03-01T09:04:50;17.00;;;8.93;;
70132;SDS011;57495;49.922;7.966;2023-03-01T09:06:51;16.58;;;8.57;;
70132;SDS011;57495;49.922;7.966;2023-03-01T09:08:53;19.90;;;10.10;;
70132;SDS011;57495;49.922;7.966;2023-03-01T09:10:54;18.85;;;9.30;;
70132;SDS011;57495;49.922;7.966;2023-03-01T09:12:56;17.60;;;9.98;;
70132;SDS011;57495;49.922;7.966;2023-03-01T09:14:57;15.77;;;8.70;;
70132;SDS011;57495;49.922;7.966;2023-03-01T09:16:59;17.48;;;8.70;;
70132;SDS011;57495;49.922;7.966;2023-03-01T09:19:04;18.85;;;9.27;;
70132;SDS011;57495;49.922;7.966;2023-03-01T09:21:06;16.30;;;8.68;;
70132;SDS011;57495;49.922;7.966;2023-03-01T09:23:09;16.90;;;9.00;;
70132;SDS011;57495;49.922;7.966;2023-03-01T09:25:10;18.90;;;9.18;;
70132;SDS011;57495;49.922;7.966;2023-03-01T09:27:12;17.05;;;9.20;;
70132;SDS011;57495;49.922;7.966;2023-03-01T09:29:14;18.70;;;10.45;;
70132;SDS011;57495;49.922;7.966;2023-03-01T09:31:17;16.92;;;9.02;;
70132;SDS011;57495;49.922;7.966;2023-03-01T09:33:20;15.90;;;9.13;;
70132;SDS011;57495;49.922;7.966;2023-03-01T09:35:23;17.95;;;9.48;;
70132;SDS011;57495;49.922;7.966;2023-03-01T09:37:25;19.75;;;9.80;;
70132;SDS011;57495;49.922;7.966;2023-03-01T09:39:28;17.92;;;9.98;;
70132;SDS011;57495;49.922;7.966;2023-03-01T09:41:33;19.88;;;9.85;;
70132;SDS011;57495;49.922;7.966;2023-03-01T09:43:45;16.85;;;9.18;;
70132;SDS011;57495;49.922;7.966;2023-03-01T09:45:54;17.70;;;9.30;;
70132;SDS011;57495;49.922;7.966;2023-03-01T09:47:58;18.20;;;9.85;;
70132;SDS011;57495;49.922;7.966;2023-03-01T09:50:01;17.77;;;9.85;;
70132;SDS011;57495;49.922;7.966;2023-03-01T09:52:11;17.13;;;9.80;;
70132;SDS011;57495;49.922;7.966;2023-03-01T09:54:22;20.05;;;9.63;;
70132;SDS011;57495;49.922;7.966;2023-03-01T09:56:24;17.33;;;9.50;;
70132;SDS011;57495;49.922;7.966;2023-03-01T09:58:38;17.33;;;9.23;;
70132;SDS011;57495;49.922;7.966;2023-03-01T10:00:49;17.38;;;9.95;;
70132;SDS011;57495;49.922;7.966;2023-03-01T10:02:52;21.23;;;11.05;;
70132;SDS011;57495;49.922;7.966;2023-03-01T10:05:03;19.38;;;10.25;;
70132;SDS011;57495;49.922;7.966;2023-03-01T10:07:17;17.50;;;9.88;;
70132;SDS011;57495;49.922;7.966;2023-03-01T10:09:27;18.05;;;9.05;;
70132;SDS011;57495;49.922;7.966;2023-03-01T10:11:35;16.70;;;9.40;;
70132;SDS011;57495;49.922;7.966;2023-03-01T10:13:43;17.92;;;9.82;;
70132;SDS011;57495;49.922;7.966;2023-03-01T10:15:53;18.38;;;10.05;;
70132;SDS011;57495;49.922;7.966;2023-03-01T10:17:58;17.67;;;10.02;;
70132;SDS011;57495;49.922;7.966;2023-03-01T10:20:14;19.38;;;10.93;;
70132;SDS011;57495;49.922;7.966;2023-03-01T10:22:20;17.90;;;10.25;;
70132;SDS011;57495;49.922;7.966;2023-03-01T10:24:25;19.20;;;10.43;;
70132;SDS011;57495;49.922;7.966;2023-03-01T10:26:36;19.13;;;11.02;;
70132;SDS011;57495;49.922;7.966;2023-03-01T10:28:47;18.42;;;11.27;;
70132;SDS011;57495;49.922;7.966;2023-03-01T10:31:00;21.00;;;11.57;;
70132;SDS011;57495;49.922;7.966;2023-03-01T10:33:06;21.88;;;11.02;;
70132;SDS011;57495;49.922;7.966;2023-03-01T10:35:19;19.70;;;11.95;;
70132;SDS011;57495;49.922;7.966;2023-03-01T10:37:23;19.38;;;10.95;;
70132;SDS011;57495;49.922;7.966;2023-03-01T10:39:27;20.00;;;11.18;;
70132;SDS011;57495;49.922;7.966;2023-03-01T10:41:28;22.48;;;11.30;;
70132;SDS011;57495;49.922;7.966;2023-03-01T10:43:31;19.80;;;10.52;;
70132;SDS011;57495;49.922;7.966;2023-03-01T10:45:44;20.08;;;12.07;;
70132;SDS011;57495;49.922;7.966;2023-03-01T10:47:46;19.23;;;11.65;;
70132;SDS011;57495;49.922;7.966;2023-03-01T10:50:04;20.08;;;10.93;;
70132;SDS011;57495;49.922;7.966;2023-03-01T10:52:19;18.95;;;11.32;;
70132;SDS011;57495;49.922;7.966;2023-03-01T10:54:26;19.90;;;11.55;;
70132;SDS011;57495;49.922;7.966;2023-03-01T10:56:30;19.60;;;11.32;;
70132;SDS011;57495;49.922;7.966;2023-03-01T10:58:56;20.27;;;11.15;;
70132;SDS011;57495;49.922;7.966;2023-03-01T11:01:00;18.90;;;10.90;;
70132;SDS011;57495;49.922;7.966;2023-03-01T11:03:08;20.33;;;11.30;;
70132;SDS011;57495;49.922;7.966;2023-03-01T11:05:16;20.00;;;11.18;;
70132;SDS011;57495;49.922;7.966;2023-03-01T11:07:25;20.52;;;11.48;;
70132;SDS011;57495;49.922;7.966;2023-03-01T11:09:29;18.25;;;11.00;;
70132;SDS011;57495;49.922;7.966;2023-03-01T11:11:37;20.15;;;10.85;;
70132;SDS011;57495;49.922;7.966;2023-03-01T11:13:39;20.73;;;11.55;;
70132;SDS011;57495;49.922;7.966;2023-03-01T11:15:58;19.23;;;11.43;;
70132;SDS011;57495;49.922;7.966;2023-03-01T11:18:00;18.63;;;11.32;;
70132;SDS011;57495;49.922;7.966;2023-03-01T11:20:05;18.08;;;10.50;;
70132;SDS011;57495;49.922;7.966;2023-03-01T11:22:17;20.33;;;10.90;;
70132;SDS011;57495;49.922;7.966;2023-03-01T11:24:29;19.10;;;11.55;;
70132;SDS011;57495;49.922;7.966;2023-03-01T11:26:35;20.48;;;11.00;;
70132;SDS011;57495;49.922;7.966;2023-03-01T11:28:40;16.10;;;10.60;;
70132;SDS011;57495;49.922;7.966;2023-03-01T11:30:49;19.65;;;10.70;;
70132;SDS011;57495;49.922;7.966;2023-03-01T11:32:59;18.15;;;10.98;;
70132;SDS011;57495;49.922;7.966;2023-03-01T11:35:09;19.45;;;11.27;;
70132;SDS011;57495;49.922;7.966;2023-03-01T11:37:16;19.65;;;10.77;;
70132;SDS011;57495;49.922;7.966;2023-03-01T11:39:32;20.95;;;11.63;;
70132;SDS011;57495;49.922;7.966;2023-03-01T11:41:39;18.23;;;11.00;;
70132;SDS011;57495;49.922;7.966;2023-03-01T11:43:44;20.10;;;11.32;;
70132;SDS011;57495;49.922;7.966;2023-03-01T11:45:56;18.02;;;11.25;;
70132;SDS011;57495;49.922;7.966;2023-03-01T11:48:28;20.40;;;11.05;;
70132;SDS011;57495;49.922;7.966;2023-03-01T11:50:40;19.00;;;10.55;;
70132;SDS011;57495;49.922;7.966;2023-03-01T11:52:48;17.77;;;10.00;;
70132;SDS011;57495;49.922;7.966;2023-03-01T11:55:03;17.95;;;10.48;;
70132;SDS011;57495;49.922;7.966;2023-03-01T11:57:18;18.60;;;11.07;;
70132;SDS011;57495;49.922;7.966;2023-03-01T11:59:37;20.02;;;10.35;;
70132;SDS011;57495;49.922;7.966;2023-03-01T12:01:51;24.48;;;11.02;;
70132;SDS011;57495;49.922;7.966;2023-03-01T12:06:55;20.48;;;10.77;;
70132;SDS011;57495;49.922;7.966;2023-03-01T12:09:12;16.85;;;10.05;;
70132;SDS011;57495;49.922;7.966;2023-03-01T12:11:33;16.60;;;10.40;;
70132;SDS011;57495;49.922;7.966;2023-03-01T12:13:57;16.85;;;10.10;;
70132;SDS011;57495;49.922;7.966;2023-03-01T12:16:16;15.95;;;10.05;;
70132;SDS011;57495;49.922;7.966;2023-03-01T12:18:29;16.48;;;10.00;;